Latest Weather Observations for Charleville

IDQ60801

Issued at 10:02 pm EST Sunday 2 August 2015 (issued every 30 minutes, with the page automatically refreshed every 10 minutes)

About weather observations | Map of weather stations | Latest weather observations for QLD | Other Formats
Station Details ID: 044021 Name: CHARLEVILLE AERO Lat: -26.41 Lon: 146.26 Height: 301.6 m
Data from the previous 72 hours. | See also: Recent months at Charleville
Date/Time
EST
Temp
°C
App
Temp
°C
Dew
Point
Rel
Hum
%
Delta-T
°C
Wind Press
QNH
hPa
Press
MSL
hPa
Rain
since 9 am
mm
Dir
 
Spd
km/h
Gust
km/h
Spd
kts
Gust
kts
02/10:00pm 14.1 13.0 4.9 54 4.3 CALM 0 0 0 0 1019.0 - -
02/09:30pm 14.5 13.5 5.4 54 4.4 CALM 0 0 0 0 1019.0 - -
02/09:00pm 14.9 13.8 5.0 51 4.7 CALM 0 0 0 0 1018.9 1018.9 -
02/08:30pm 15.5 14.6 6.2 54 4.6 CALM 0 0 0 0 1018.8 - -
02/08:00pm 16.4 15.5 6.0 50 5.1 CALM 0 0 0 0 1018.5 - -
02/07:30pm 17.5 16.1 5.4 45 5.9 NNW 2 6 1 3 1018.3 - -
02/07:00pm 19.2 18.5 6.9 44 6.3 CALM 0 0 0 0 1018.2 - -
02/06:30pm 22.3 20.1 5.3 33 8.6 NW 6 7 3 4 1017.9 - -
02/06:00pm 23.9 20.6 4.7 28 9.7 NNW 11 13 6 7 1017.7 1017.7 -
02/05:30pm 25.7 21.7 3.0 23 11.3 NNW 13 17 7 9 1017.4 - -
02/05:00pm 26.6 21.2 1.4 19 12.2 NW 19 30 10 16 1017.2 - -
02/04:30pm 27.1 22.1 1.2 18 12.6 NW 17 22 9 12 1017.1 - -
02/04:00pm 27.3 21.8 1.6 19 12.6 NW 20 28 11 15 1017.1 - -
02/03:30pm 27.4 21.6 0.0 16 13.0 NW 20 28 11 15 1017.2 - -
02/03:00pm 27.4 21.3 0.4 17 12.9 NW 22 35 12 19 1017.3 1017.3 0.0
02/02:30pm 27.0 22.3 3.3 21 11.9 NNW 17 26 9 14 1017.3 - 0.0
02/02:00pm 26.3 19.5 2.9 22 11.6 N 28 37 15 20 1017.3 - 0.0
02/01:30pm 26.7 20.0 3.4 22 11.7 N 28 39 15 21 1017.7 - 0.0
02/01:00pm 26.0 20.6 4.4 25 11.0 NW 22 32 12 17 1018.9 - 0.0
02/12:30pm 25.6 20.2 4.4 25 10.8 NNW 22 33 12 18 1019.5 - 0.0
02/12:00pm 24.8 18.7 4.8 27 10.2 NNW 26 37 14 20 1020.3 1020.3 0.0
02/11:30am 23.9 17.5 5.3 30 9.5 NW 28 35 15 19 1020.8 - 0.0
02/11:00am 23.3 18.5 5.6 31 9.1 NNW 20 30 11 16 1021.1 - 0.0
02/10:30am 22.1 17.4 6.1 35 8.2 N 20 28 11 15 1021.2 - 0.0
02/10:00am 21.0 17.0 6.5 39 7.4 N 17 24 9 13 1021.3 - 0.0
02/09:30am 18.1 13.9 5.9 44 6.1 N 17 19 9 10 1021.2 - 0.0
02/09:00am 16.6 11.8 5.6 48 5.4 N 20 30 11 16 1021.0 1021.1 0.0
02/08:30am 15.2 10.5 5.0 50 4.9 N 19 28 10 15 1020.8 - -
02/08:00am 13.5 9.1 4.7 55 4.1 NNE 17 20 9 11 1020.7 - -
02/07:30am 11.9 7.7 4.0 58 3.6 NNE 15 19 8 10 1020.4 - -
02/07:00am 10.6 6.8 3.9 63 3.0 NNE 13 17 7 9 1020.3 - -
02/06:30am 10.4 6.9 3.6 63 3.0 NNE 11 15 6 8 1020.1 - -
02/06:00am 10.1 7.0 3.5 63 2.9 NNE 9 13 5 7 1019.9 1019.9 -
02/05:30am 10.4 7.3 3.4 62 3.1 NNE 9 13 5 7 1019.8 - -
02/05:00am 10.2 6.7 3.5 63 3.0 NNE 11 11 6 6 1019.5 - -
02/04:30am 9.5 6.5 4.2 69 2.4 NNE 9 9 5 5 1019.4 - -
02/04:00am 9.4 6.3 3.7 67 2.5 N 9 9 5 5 1019.3 - -
02/03:30am 10.6 7.7 4.6 66 2.7 N 9 9 5 5 1019.3 - -
02/03:00am 11.5 8.5 4.1 60 3.4 N 9 11 5 6 1019.5 1019.5 -
02/02:30am 11.7 8.2 3.5 57 3.7 NNE 11 15 6 8 1019.5 - -
02/02:00am 11.8 8.3 3.7 57 3.7 N 11 13 6 7 1019.6 - -
02/01:30am 12.2 8.7 3.4 55 4.0 NNE 11 13 6 7 1019.7 - -
02/01:00am 12.4 9.3 3.8 55 3.9 NNE 9 11 5 6 1019.8 - -
02/12:30am 12.5 9.3 2.9 52 4.3 N 9 11 5 6 1020.0 - -
02/12:00am 11.2 10.0 4.4 63 3.1 CALM 0 0 0 0 1020.2 1020.2 -
 
Date/Time
EST
Temp
°C
App
Temp
°C
Dew
Point
Rel
Hum
%
Delta-T
°C
Wind Press
QNH
hPa
Press
MSL
hPa
Rain
since 9 am
mm
Dir
 
Spd
km/h
Gust
km/h
Spd
kts
Gust
kts
01/11:30pm 11.2 9.4 3.7 60 3.4 N 2 6 1 3 1020.0 - -
01/11:00pm 11.6 9.8 3.5 57 3.6 N 2 7 1 4 1020.1 - -
01/10:30pm 11.9 9.4 3.5 56 3.8 N 6 9 3 5 1020.3 - -
01/10:00pm 12.3 11.1 4.8 60 3.5 CALM 0 0 0 0 1020.2 - -
01/09:30pm 13.2 11.9 4.0 53 4.2 CALM 0 0 0 0 1020.2 - -
01/09:00pm 13.7 12.3 3.8 51 4.5 CALM 0 0 0 0 1020.2 1020.2 -
01/08:30pm 14.1 12.8 4.2 51 4.6 CALM 0 6 0 3 1019.9 - -
01/08:00pm 14.9 13.6 4.2 48 5.0 CALM 0 0 0 0 1019.7 - -
01/07:30pm 16.0 14.6 3.5 43 5.8 CALM 0 0 0 0 1019.3 - -
01/07:00pm 17.5 16.4 5.1 44 6.0 CALM 0 0 0 0 1019.0 - -
01/06:30pm 19.6 18.2 3.6 34 7.7 CALM 0 0 0 0 1018.8 - -
01/06:00pm 22.1 20.7 3.8 30 9.0 CALM 0 6 0 3 1018.6 1018.6 -
01/05:30pm 25.6 22.1 1.1 20 11.7 NW 9 11 5 6 1018.5 - -
01/05:00pm 26.8 22.4 0.1 17 12.7 NNW 13 17 7 9 1018.3 - -
01/04:30pm 27.0 23.0 0.3 17 12.7 NW 11 20 6 11 1018.2 - -
01/04:00pm - - - - - NW 9 17 5 9 - - -
01/03:30pm 27.2 24.4 3.3 21 12.0 NNE 7 11 4 6 1018.5 - -
01/03:00pm 26.7 23.8 1.7 19 12.2 N 6 17 3 9 1018.6 1018.6 -
01/02:30pm - - - - - - - - - - - - -
01/02:00pm 26.7 21.5 0.4 18 12.5 NNE 17 22 9 12 1019.1 - -
01/01:30pm 26.3 22.3 2.8 22 11.7 N 13 24 7 13 1019.5 - 0.0
01/01:00pm 26.1 21.5 1.6 20 11.9 N 15 20 8 11 1020.2 - 0.0
01/12:30pm 25.3 19.8 0.3 19 11.8 NNW 19 24 10 13 1020.8 - 0.0
01/12:00pm 25.0 20.3 0.8 20 11.4 N 15 24 8 13 1021.2 1021.3 0.0
01/11:30am 24.3 20.3 3.0 25 10.5 NNE 13 17 7 9 1021.8 - 0.0
01/11:00am 22.9 18.8 4.5 30 9.2 NNE 15 20 8 11 1022.3 - 0.0
01/10:30am 21.5 16.5 3.6 31 8.7 NNE 19 22 10 12 1022.4 - 0.0
01/10:00am 19.6 14.4 2.4 32 8.1 N 19 26 10 14 1022.6 - 0.0
01/09:30am 17.4 12.4 1.5 34 7.2 NNE 17 22 9 12 1022.5 - 0.0
01/09:00am 15.3 10.2 1.0 38 6.3 NNE 17 26 9 14 1022.4 1022.4 -
01/08:30am 12.6 8.2 0.5 43 5.1 NNE 13 17 7 9 1022.2 - -
01/08:00am 10.0 6.0 0.3 51 4.0 N 11 13 6 7 1022.2 - -
01/07:30am 7.3 4.1 0.7 63 2.7 NNE 7 9 4 5 1021.9 - -
01/07:00am 4.8 3.1 1.6 80 1.3 CALM 0 0 0 0 1021.4 - -
01/06:30am 4.2 2.4 1.4 82 1.1 CALM 0 0 0 0 1021.1 - -
01/06:00am 4.3 2.5 1.1 80 1.3 CALM 0 0 0 0 1020.9 1021.0 -
01/05:30am 4.6 2.8 1.2 78 1.4 CALM 0 0 0 0 1020.9 - -
01/05:00am 4.9 3.1 1.3 77 1.4 CALM 0 0 0 0 1020.9 - -
01/04:30am 5.2 3.3 0.5 72 1.9 CALM 0 0 0 0 1020.7 - -
01/04:00am 5.6 3.7 0.8 71 1.9 CALM 0 0 0 0 1020.6 - -
01/03:30am 5.8 4.0 0.9 71 2.0 CALM 0 0 0 0 1020.8 - -
01/03:00am 5.8 4.0 1.1 72 1.9 CALM 0 0 0 0 1021.0 1021.1 -
01/02:30am 6.3 4.5 1.0 69 2.1 CALM 0 0 0 0 1021.4 - -
01/02:00am 6.8 5.1 1.6 69 2.1 CALM 0 0 0 0 1021.7 - -
01/01:30am 7.5 5.8 1.7 66 2.4 CALM 0 0 0 0 1021.7 - -
01/01:00am 7.9 5.8 1.5 64 2.7 N 2 6 1 3 1021.7 - -
01/12:30am 8.1 6.5 2.2 66 2.5 CALM 0 0 0 0 1021.8 - -
01/12:00am 8.6 6.9 1.8 62 2.9 CALM 0 0 0 0 1022.0 1022.3 -
 
Date/Time
EST
Temp
°C
App
Temp
°C
Dew
Point
Rel
Hum
%
Delta-T
°C
Wind Press
QNH
hPa
Press
MSL
hPa
Rain
since 9 am
mm
Dir
 
Spd
km/h
Gust
km/h
Spd
kts
Gust
kts
31/11:30pm 9.0 7.2 1.4 59 3.2 CALM 0 0 0 0 1022.2 - -
31/11:00pm 9.6 7.9 1.9 58 3.3 CALM 0 0 0 0 1022.2 - -
31/10:30pm 10.7 8.9 1.0 51 4.1 CALM 0 0 0 0 1022.3 - -
31/10:00pm 11.5 9.5 2.3 53 4.0 ESE 2 6 1 3 1022.1 - -
31/09:30pm 12.8 9.4 1.9 47 4.8 ESE 9 11 5 6 1022.0 - -
31/09:00pm 14.0 10.2 -0.8 36 6.2 ESE 9 11 5 6 1022.0 1022.3 -
31/08:30pm 14.1 10.0 -0.3 37 6.1 SE 11 11 6 6 1021.9 - -
31/08:00pm 13.2 9.6 0.7 42 5.4 SE 9 11 5 6 1021.8 - -
31/07:30pm 13.7 10.5 0.8 41 5.6 SE 7 9 4 5 1021.4 - -
31/07:00pm 14.9 11.7 0.7 38 6.2 SSE 7 7 4 4 1021.1 - -
31/06:30pm 16.5 14.1 -0.6 31 7.4 WSW 2 11 1 6 1020.7 - -
31/06:00pm 19.0 17.0 -0.3 27 8.5 CALM 0 0 0 0 1020.5 1020.8 -
31/05:30pm 22.2 20.1 -0.9 21 10.4 CALM 0 0 0 0 1020.3 - -
31/05:00pm 23.5 21.0 -0.7 20 11.0 WSW 2 11 1 6 1020.1 - -
31/04:30pm 24.3 21.9 -3.4 15 12.1 CALM 0 7 0 4 1020.2 - -
31/04:00pm 24.3 21.2 -2.4 17 11.9 SSE 4 9 2 5 1020.2 - -
31/03:30pm 24.6 20.9 -3.0 16 12.2 SW 7 13 4 7 1020.2 - -
31/03:00pm 24.6 20.9 -2.5 16 12.0 N 7 13 4 7 1020.5 1020.8 -
31/02:30pm 24.6 22.3 -2.5 16 12.0 CALM 0 4 0 2 1020.7 - -
31/02:00pm 24.2 20.0 -0.6 19 11.4 WNW 11 19 6 10 1021.0 - -
31/01:30pm 23.8 20.6 -0.6 20 11.2 NW 6 13 3 7 1021.4 - -
31/01:00pm 23.4 18.8 -1.0 19 11.0 NNW 13 22 7 12 1022.2 - -
31/12:30pm - - - - - - - - - - - - 0.0
31/12:00pm 22.4 19.3 1.3 25 9.9 NNW 7 11 4 6 1023.5 1023.8 0.0
31/11:30am 21.9 18.2 2.1 27 9.4 N 11 15 6 8 1024.1 - 0.0
31/11:00am 20.6 17.5 3.8 33 8.2 N 9 13 5 7 1024.3 - 0.0
31/10:30am 18.9 16.1 3.1 35 7.5 NNW 7 9 4 5 1024.6 - 0.0
31/10:00am 17.1 14.5 3.1 39 6.5 NNW 6 9 3 5 1024.8 - 0.0
31/09:30am 14.7 11.3 1.9 42 5.7 N 9 13 5 7 1024.8 - 0.0
31/09:00am 12.7 9.0 2.1 48 4.6 N 11 15 6 8 1024.7 1025.1 0.0
31/08:30am 10.8 8.0 2.2 55 3.7 N 6 9 3 5 1024.3 - 0.0
31/08:00am 7.9 5.6 2.5 69 2.3 NNE 4 7 2 4 1023.9 - 0.0
31/07:30am 4.5 2.8 2.1 84 1.0 CALM 0 0 0 0 1023.8 - 0.0
31/07:00am 3.9 2.2 1.7 85 0.9 CALM 0 0 0 0 1023.5 - 0.0
31/06:30am 3.9 2.2 1.6 85 0.9 CALM 0 0 0 0 1023.2 - 0.0
31/06:00am 3.7 0.8 1.5 85 0.9 NE 6 7 3 4 1022.6 1022.9 0.0
31/05:30am 3.4 1.7 1.7 89 0.7 CALM 0 0 0 0 1022.3 - 0.0
31/05:00am 3.8 2.1 1.7 86 0.8 CALM 0 0 0 0 1022.3 - 0.0
31/04:30am 4.1 2.4 1.9 85 0.9 CALM 0 0 0 0 1022.1 - 0.0
31/04:00am 4.5 2.8 2.0 84 1.0 CALM 0 0 0 0 1022.0 - 0.0
31/03:30am 4.9 3.2 2.1 82 1.1 CALM 0 0 0 0 1022.4 - 0.0
31/03:00am 5.4 3.8 2.2 80 1.3 CALM 0 0 0 0 1022.5 1022.8 0.0
31/02:30am 5.8 4.2 2.5 79 1.4 CALM 0 0 0 0 1022.4 - 0.0
31/02:00am 5.6 4.0 2.6 81 1.3 CALM 0 0 0 0 1022.5 - 0.0
31/01:30am 5.9 4.3 2.5 79 1.4 CALM 0 0 0 0 1023.0 - 0.0
31/01:00am 6.4 4.8 2.5 76 1.6 CALM 0 0 0 0 1023.3 - 0.0
31/12:30am 6.9 5.4 2.9 76 1.7 CALM 0 0 0 0 1023.4 - 0.0
31/12:00am 7.5 6.0 2.9 72 2.0 CALM 0 6 0 3 1023.4 1023.7 0.0
 
Date/Time
EST
Temp
°C
App
Temp
°C
Dew
Point
Rel
Hum
%
Delta-T
°C
Wind Press
QNH
hPa
Press
MSL
hPa
Rain
since 9 am
mm
Dir
 
Spd
km/h
Gust
km/h
Spd
kts
Gust
kts
30/11:30pm 8.3 6.9 3.7 73 2.0 CALM 0 0 0 0 1023.5 - 0.0
30/11:00pm 9.1 7.8 4.2 71 2.2 CALM 0 0 0 0 1023.4 - 0.0
30/10:30pm 9.9 7.2 2.8 61 3.1 ENE 6 7 3 4 1023.5 - 0.0

Other Formats:

Comma delimited format used in spreadsheet applications
http://www.bom.gov.au/fwo/IDQ60801/IDQ60801.94510.axf

JavaScript Object Notation format (JSON) in row-major order
http://www.bom.gov.au/fwo/IDQ60801/IDQ60801.94510.json